X  Blizu METAR Podaci o vazduhoplovstvu     EHKD De Kooy Airport
Temperatura
9°C Temperatura
8°C Tačka Rose
94% Vlaga



Vetar
6 M/S
13 MPS
21 KM/S
11 Čvorovi



160°
JJI
Trenutna situacija

Izmaglica Izmaglica
Vazdušni pritisak 1002.03 (hPa) - 29.59 (inHg)
Vidljivost 5 (Milje) - 8 (km)
Aerodrom
Aerodromski kod. EHKD

Lokacija: De Kooy Airport
Udaljenost: 34 (km)

Metar:
EHKD 291758Z AUTO 16011KT 130V190 8000 BR FEW005 SCT007 BKN008 09/08 Q1002 GRN TEMPO 4500 DZ SCT005 OVC006

Vreme: 29-02-2024 18:58 CET